createdAt,value
2023-09-08T00:00:53.950Z,99168.56
2023-09-08T00:03:22.964Z,99170.03
2023-09-08T00:05:50.144Z,99175.75
2023-09-08T00:08:18.947Z,99180.50
2023-09-08T00:10:46.059Z,99179.66
2023-09-08T00:13:13.144Z,99177.16
2023-09-08T00:15:40.152Z,99188.66
2023-09-08T00:18:07.329Z,99178.66
2023-09-08T00:20:34.319Z,99174.66
2023-09-08T00:23:01.244Z,99185.59
2023-09-08T00:25:29.790Z,99181.25
2023-09-08T00:27:56.745Z,99169.94
2023-09-08T00:30:23.643Z,99179.16
2023-09-08T00:32:50.704Z,99176.00
2023-09-08T00:35:18.306Z,99176.38
2023-09-08T00:37:45.314Z,99178.69
2023-09-08T00:40:12.361Z,99172.50
2023-09-08T00:42:40.894Z,99173.97
2023-09-08T00:45:08.281Z,99178.69
2023-09-08T00:47:36.224Z,99176.13
2023-09-08T00:50:04.415Z,99179.19
2023-09-08T00:52:33.603Z,99174.88
2023-09-08T00:55:00.921Z,99175.44
2023-09-08T00:57:28.035Z,99177.66
2023-09-08T00:59:56.624Z,99173.28
2023-09-08T01:02:23.820Z,99176.88
2023-09-08T01:04:51.550Z,99171.53
2023-09-08T01:07:21.696Z,99173.19
2023-09-08T01:09:49.253Z,99182.69
2023-09-08T01:12:17.130Z,99179.72
2023-09-08T01:14:44.268Z,99180.63
2023-09-08T01:17:13.667Z,99182.94
2023-09-08T01:19:42.427Z,99174.09
2023-09-08T01:22:31.163Z,99174.28
2023-09-08T01:25:20.881Z,99169.13
2023-09-08T01:27:50.908Z,99166.91
2023-09-08T01:30:19.623Z,99176.38
2023-09-08T01:32:49.460Z,99176.56
2023-09-08T01:35:17.032Z,99175.72
2023-09-08T01:37:47.210Z,99177.59
2023-09-08T01:40:16.315Z,99172.06
2023-09-08T01:42:43.841Z,99170.19
2023-09-08T01:45:10.824Z,99170.78
2023-09-08T01:47:38.579Z,99171.34
2023-09-08T01:50:06.765Z,99173.69
2023-09-08T01:52:33.770Z,99169.00
2023-09-08T01:55:02.340Z,99166.63
2023-09-08T01:57:31.109Z,99167.41
2023-09-08T01:59:58.077Z,99165.09
2023-09-08T02:02:26.039Z,99172.19
2023-09-08T02:04:53.095Z,99177.50
2023-09-08T02:07:20.265Z,99171.56
2023-09-08T02:09:49.927Z,99171.19
2023-09-08T02:12:17.164Z,99163.81
2023-09-08T02:14:46.009Z,99168.78
2023-09-08T02:17:14.293Z,99161.97
2023-09-08T02:19:41.508Z,99165.63
2023-09-08T02:22:10.339Z,99166.53
2023-09-08T02:24:37.376Z,99173.84
2023-09-08T02:27:05.002Z,99161.59
2023-09-08T02:29:32.367Z,99159.31
2023-09-08T02:32:00.673Z,99172.66
2023-09-08T02:34:27.621Z,99169.16
2023-09-08T02:36:55.160Z,99168.13
2023-09-08T02:39:28.072Z,99171.53
2023-09-08T02:41:56.031Z,99178.50
2023-09-08T02:44:26.607Z,99167.03
2023-09-08T02:46:53.908Z,99173.53
2023-09-08T02:49:23.070Z,99176.31
2023-09-08T02:51:50.035Z,99171.72
2023-09-08T02:54:17.301Z,99188.44
2023-09-08T02:56:44.288Z,99187.06
2023-09-08T02:59:12.174Z,99178.97
2023-09-08T03:01:39.192Z,99181.63
2023-09-08T03:04:06.637Z,99175.00
2023-09-08T03:06:36.209Z,99168.94
2023-09-08T03:09:03.355Z,99178.41
2023-09-08T03:11:30.830Z,99182.75
2023-09-08T03:13:57.890Z,99185.03
2023-09-08T03:16:24.862Z,99190.94
2023-09-08T03:18:51.874Z,99186.97
2023-09-08T03:21:18.864Z,99193.78
2023-09-08T03:23:50.267Z,99184.13
2023-09-08T03:26:17.457Z,99195.38
2023-09-08T03:28:44.403Z,99199.69
2023-09-08T03:31:11.629Z,99192.31
2023-09-08T03:33:38.837Z,99189.63
2023-09-08T03:36:08.366Z,99187.81
2023-09-08T03:38:38.194Z,99183.31
2023-09-08T03:41:07.747Z,99188.81
2023-09-08T03:43:35.002Z,99184.03
2023-09-08T03:46:02.766Z,99185.50
2023-09-08T03:48:29.846Z,99187.16
2023-09-08T03:50:56.958Z,99188.00
2023-09-08T03:53:24.043Z,99186.25
2023-09-08T03:55:51.663Z,99175.94
2023-09-08T03:58:20.388Z,99176.66
2023-09-08T04:00:49.703Z,99174.91
2023-09-08T04:03:17.193Z,99183.09
2023-09-08T04:05:44.528Z,99176.97
2023-09-08T04:08:11.492Z,99180.00
2023-09-08T04:10:38.505Z,99172.06
2023-09-08T04:13:05.788Z,99183.84
2023-09-08T04:15:35.229Z,99181.53
2023-09-08T04:18:03.213Z,99189.53
2023-09-08T04:20:30.304Z,99187.47
2023-09-08T04:22:57.433Z,99191.97
2023-09-08T04:25:26.105Z,99190.69
2023-09-08T04:27:53.246Z,99186.34
2023-09-08T04:30:20.334Z,99194.34
2023-09-08T04:32:49.036Z,99197.56
2023-09-08T04:35:16.175Z,99194.72
2023-09-08T04:37:43.477Z,99197.06
2023-09-08T04:40:11.295Z,99199.56
2023-09-08T04:42:38.282Z,99193.78
2023-09-08T04:45:07.183Z,99196.63
2023-09-08T04:47:35.097Z,99196.44
2023-09-08T04:50:03.600Z,99203.69
2023-09-08T04:52:30.787Z,99206.19
2023-09-08T04:54:57.759Z,99209.34
2023-09-08T04:57:25.534Z,99210.72
2023-09-08T04:59:56.934Z,99208.69
2023-09-08T05:02:24.397Z,99210.31
2023-09-08T05:04:51.842Z,99214.69
2023-09-08T05:07:20.499Z,99213.66
2023-09-08T05:09:48.613Z,99209.44
2023-09-08T05:12:15.637Z,99205.41
2023-09-08T05:14:43.051Z,99199.41
2023-09-08T05:17:10.450Z,99206.13
2023-09-08T05:19:37.538Z,99204.66
2023-09-08T05:22:06.684Z,99210.66
2023-09-08T05:24:35.425Z,99204.41
2023-09-08T05:27:02.432Z,99210.97
2023-09-08T05:29:29.349Z,99217.94
2023-09-08T05:31:56.557Z,99211.47
2023-09-08T05:34:24.425Z,99215.25
2023-09-08T05:36:51.881Z,99212.16
2023-09-08T05:39:20.348Z,99210.97
2023-09-08T05:41:49.282Z,99213.22
2023-09-08T05:44:16.687Z,99209.38
2023-09-08T05:46:43.884Z,99216.44
2023-09-08T05:49:11.268Z,99223.97
2023-09-08T05:51:38.415Z,99220.69
2023-09-08T05:54:06.707Z,99217.03
2023-09-08T05:56:35.149Z,99216.00
2023-09-08T05:59:03.846Z,99217.78
2023-09-08T06:01:32.340Z,99223.31
2023-09-08T06:04:00.457Z,99230.88
2023-09-08T06:06:30.222Z,99226.94
2023-09-08T06:08:57.248Z,99226.31
2023-09-08T06:11:24.662Z,99228.72
2023-09-08T06:13:51.663Z,99226.19
2023-09-08T06:16:20.117Z,99236.53
2023-09-08T06:18:48.082Z,99222.03
2023-09-08T06:21:18.686Z,99228.19
2023-09-08T06:23:45.927Z,99214.25
2023-09-08T06:26:14.633Z,99218.47
2023-09-08T06:28:44.402Z,99225.53
2023-09-08T06:31:11.432Z,99221.09
2023-09-08T06:33:42.080Z,99215.13
2023-09-08T06:36:09.121Z,99218.38
2023-09-08T06:38:36.482Z,99218.47
2023-09-08T06:41:10.642Z,99225.09
2023-09-08T06:43:37.786Z,99226.88
2023-09-08T06:46:10.099Z,99226.13
2023-09-08T06:48:38.322Z,99222.47
2023-09-08T06:51:07.465Z,99229.63
2023-09-08T06:53:35.290Z,99233.13
2023-09-08T06:56:02.356Z,99235.00
2023-09-08T06:58:30.422Z,99226.91
2023-09-08T07:00:57.876Z,99226.47
2023-09-08T07:03:27.868Z,99232.44
2023-09-08T07:05:56.063Z,99224.53
2023-09-08T07:08:25.757Z,99222.78
2023-09-08T07:10:54.606Z,99232.91
2023-09-08T07:13:21.727Z,99225.25
2023-09-08T07:15:48.778Z,99231.22
2023-09-08T07:18:16.105Z,99241.22
2023-09-08T07:20:47.901Z,99226.66
2023-09-08T07:23:15.851Z,99223.53
2023-09-08T07:25:47.820Z,99232.53
2023-09-08T07:28:15.754Z,99231.38
2023-09-08T07:30:43.702Z,99227.03
2023-09-08T07:33:11.693Z,99233.06
2023-09-08T07:35:40.324Z,99236.56
2023-09-08T07:38:08.168Z,99235.16
2023-09-08T07:40:35.722Z,99231.59
2023-09-08T07:43:04.567Z,99228.34
2023-09-08T07:45:31.654Z,99235.25
2023-09-08T07:47:58.637Z,99224.03
2023-09-08T07:50:28.099Z,99234.38
2023-09-08T07:52:57.388Z,99231.78
2023-09-08T07:55:28.375Z,99226.28
2023-09-08T07:57:56.279Z,99224.72
2023-09-08T08:00:24.908Z,99227.13
2023-09-08T08:02:55.525Z,99222.53
2023-09-08T08:05:23.035Z,99221.50
2023-09-08T08:07:50.065Z,99222.00
2023-09-08T08:10:17.079Z,99226.97
2023-09-08T08:12:44.831Z,99225.41
2023-09-08T08:15:12.274Z,99226.66
2023-09-08T08:17:41.288Z,99229.25
2023-09-08T08:20:10.872Z,99231.44
2023-09-08T08:22:38.206Z,99232.75
2023-09-08T08:25:06.251Z,99233.41
2023-09-08T08:27:33.411Z,99225.19
2023-09-08T08:30:02.510Z,99233.91
2023-09-08T08:32:30.135Z,99224.63
2023-09-08T08:34:58.580Z,99232.06
2023-09-08T08:37:25.756Z,99232.59
2023-09-08T08:39:53.853Z,99230.94
2023-09-08T08:42:23.815Z,99230.66
2023-09-08T08:44:51.651Z,99232.16
2023-09-08T08:47:20.358Z,99229.47
2023-09-08T08:49:50.036Z,99227.66
2023-09-08T08:52:19.630Z,99221.63
2023-09-08T08:54:47.395Z,99227.47
2023-09-08T08:57:15.296Z,99226.38
2023-09-08T08:59:45.234Z,99224.28
2023-09-08T09:02:13.261Z,99218.88
2023-09-08T09:04:40.727Z,99215.69
2023-09-08T09:07:08.890Z,99225.09
2023-09-08T09:09:37.159Z,99223.91
2023-09-08T09:12:04.878Z,99218.28
2023-09-08T09:14:34.546Z,99230.22
2023-09-08T09:17:02.602Z,99223.72
2023-09-08T09:19:31.646Z,99224.41
2023-09-08T09:22:00.281Z,99225.13
2023-09-08T09:24:33.936Z,99220.31
2023-09-08T09:27:02.859Z,99220.59
2023-09-08T09:29:30.638Z,99227.25
2023-09-08T09:31:59.124Z,99226.84
2023-09-08T09:34:26.356Z,99212.53
2023-09-08T09:36:53.488Z,99229.69
2023-09-08T09:39:21.773Z,99210.09
2023-09-08T09:41:49.434Z,99222.50
2023-09-08T09:44:18.001Z,99217.75
2023-09-08T09:46:46.973Z,99211.75
2023-09-08T09:49:15.161Z,99211.00
2023-09-08T09:51:44.651Z,99211.22
2023-09-08T09:54:12.637Z,99211.53
2023-09-08T09:56:40.889Z,99216.69
2023-09-08T09:59:10.442Z,99208.50
2023-09-08T10:01:39.719Z,99203.84
2023-09-08T10:04:07.533Z,99204.09
2023-09-08T10:06:36.692Z,99199.38
2023-09-08T10:09:06.127Z,99200.19
2023-09-08T10:11:40.486Z,99201.84
2023-09-08T10:14:12.359Z,99192.81
2023-09-08T10:16:44.436Z,99194.06
2023-09-08T10:19:12.497Z,99200.78
2023-09-08T10:21:42.970Z,99197.50
2023-09-08T10:24:16.539Z,99195.31
2023-09-08T10:26:48.796Z,99196.09
2023-09-08T10:29:16.052Z,99192.47
2023-09-08T10:31:45.453Z,99190.53
2023-09-08T10:34:12.974Z,99194.41
2023-09-08T10:36:40.341Z,99196.13
2023-09-08T10:39:32.914Z,99194.50
2023-09-08T10:42:27.501Z,99191.53
2023-09-08T10:44:59.599Z,99188.50
2023-09-08T10:47:35.402Z,99183.53
2023-09-08T10:50:02.733Z,99187.00
2023-09-08T10:52:29.963Z,99188.28
2023-09-08T10:54:57.705Z,99182.63
2023-09-08T10:57:26.468Z,99186.03
2023-09-08T10:59:57.092Z,99182.72
2023-09-08T11:02:36.812Z,99178.16
2023-09-08T11:05:06.065Z,99176.50
2023-09-08T11:07:36.106Z,99172.97
2023-09-08T11:10:03.135Z,99174.25
2023-09-08T11:12:30.252Z,99172.06
2023-09-08T11:14:57.249Z,99171.56
2023-09-08T11:17:27.031Z,99166.84
2023-09-08T11:19:55.767Z,99167.91
2023-09-08T11:22:27.441Z,99172.72
2023-09-08T11:24:58.127Z,99166.50
2023-09-08T11:27:25.285Z,99168.66
2023-09-08T11:29:52.266Z,99171.59
2023-09-08T11:32:19.394Z,99168.00
2023-09-08T11:34:46.360Z,99166.31
2023-09-08T11:37:17.235Z,99169.00
2023-09-08T11:39:45.472Z,99162.50
2023-09-08T11:42:14.295Z,99166.47
2023-09-08T11:44:42.353Z,99165.44
2023-09-08T11:47:10.795Z,99168.84
2023-09-08T11:49:38.627Z,99164.84
2023-09-08T11:52:06.572Z,99166.03
2023-09-08T11:54:36.330Z,99161.31
2023-09-08T11:57:05.489Z,99154.38
2023-09-08T11:59:34.292Z,99163.44
2023-09-08T12:02:02.099Z,99162.34
2023-09-08T12:04:29.047Z,99156.84
2023-09-08T12:06:57.257Z,99152.38
2023-09-08T12:09:24.918Z,99158.56
2023-09-08T12:11:53.320Z,99146.56
2023-09-08T12:14:20.194Z,99147.97
2023-09-08T12:16:47.433Z,99147.31
2023-09-08T12:19:31.637Z,99147.44
2023-09-08T12:22:01.217Z,99135.63
2023-09-08T12:25:00.143Z,99142.13
2023-09-08T12:27:28.600Z,99141.53
2023-09-08T12:29:56.679Z,99146.03
2023-09-08T12:32:24.638Z,99146.03
2023-09-08T12:34:52.230Z,99139.22
2023-09-08T12:37:22.192Z,99142.41
2023-09-08T12:39:49.409Z,99138.25
2023-09-08T12:42:16.396Z,99140.13
2023-09-08T12:44:45.100Z,99140.97
2023-09-08T12:47:15.786Z,99138.41
2023-09-08T12:49:42.574Z,99136.19
2023-09-08T12:52:10.602Z,99131.84
2023-09-08T12:54:37.646Z,99121.94
2023-09-08T12:57:06.902Z,99119.84
2023-09-08T12:59:34.182Z,99123.25
2023-09-08T13:02:02.439Z,99128.88
2023-09-08T13:04:29.372Z,99125.03
2023-09-08T13:06:56.311Z,99133.84
2023-09-08T13:09:26.217Z,99113.03
2023-09-08T13:11:53.186Z,99110.22
2023-09-08T13:14:20.090Z,99104.81
2023-09-08T13:16:47.020Z,99115.91
2023-09-08T13:19:15.407Z,99114.19
2023-09-08T13:21:42.326Z,99116.72
2023-09-08T13:24:10.166Z,99099.34
2023-09-08T13:26:38.722Z,99099.75
2023-09-08T13:29:06.909Z,99091.69
2023-09-08T13:31:34.135Z,99088.50
2023-09-08T13:34:01.278Z,99089.91
2023-09-08T13:36:29.607Z,99079.47
2023-09-08T13:38:56.735Z,99089.22
2023-09-08T13:41:24.948Z,99082.53
2023-09-08T13:43:51.860Z,99078.84
2023-09-08T13:46:18.850Z,99084.88
2023-09-08T13:48:46.495Z,99091.72
2023-09-08T13:51:14.506Z,99075.94
2023-09-08T13:53:47.351Z,99073.91
2023-09-08T13:56:15.844Z,99075.34
2023-09-08T13:58:50.099Z,99072.53
2023-09-08T14:01:20.146Z,99075.72
2023-09-08T14:06:21.243Z,99071.72
2023-09-08T14:11:34.976Z,99068.81
2023-09-08T14:14:11.069Z,99070.97
2023-09-08T14:16:38.188Z,99073.19
2023-09-08T14:19:06.242Z,99066.09
2023-09-08T14:21:33.707Z,99068.41
2023-09-08T14:24:02.175Z,99065.13
2023-09-08T14:26:29.119Z,99059.53
2023-09-08T14:28:56.129Z,99063.38
2023-09-08T14:31:23.209Z,99065.59
2023-09-08T14:33:50.364Z,99061.78
2023-09-08T14:36:20.836Z,99068.47
2023-09-08T14:38:48.303Z,99064.66
2023-09-08T14:41:16.793Z,99063.22
2023-09-08T14:43:43.868Z,99063.09
2023-09-08T14:46:10.892Z,99055.84
2023-09-08T14:48:37.977Z,99057.50
2023-09-08T14:51:05.067Z,99059.41
2023-09-08T14:53:32.847Z,99062.50
2023-09-08T14:56:00.244Z,99059.22
2023-09-08T14:58:33.058Z,99052.66
2023-09-08T15:01:04.822Z,99058.56
2023-09-08T15:03:32.866Z,99052.50
2023-09-08T15:06:00.296Z,99051.59
2023-09-08T15:08:27.477Z,99049.31
2023-09-08T15:10:54.609Z,99044.09
2023-09-08T15:13:23.807Z,99045.09
2023-09-08T15:15:52.722Z,99046.09
2023-09-08T15:18:23.765Z,99046.09
2023-09-08T15:20:54.983Z,99045.53
2023-09-08T15:23:22.472Z,99039.28
2023-09-08T15:25:53.476Z,99051.06
2023-09-08T15:28:21.391Z,99050.50
2023-09-08T15:30:49.602Z,99047.78
2023-09-08T15:33:19.027Z,99044.81
2023-09-08T15:35:46.405Z,99040.47
2023-09-08T15:38:14.081Z,99036.69
2023-09-08T15:41:18.006Z,99041.94
2023-09-08T15:43:48.142Z,99037.31
2023-09-08T15:46:15.602Z,99037.09
2023-09-08T15:48:44.121Z,99038.22
2023-09-08T15:51:11.311Z,99039.88
2023-09-08T15:53:39.036Z,99037.00
2023-09-08T15:56:08.156Z,99038.38
2023-09-08T15:58:35.479Z,99033.81
2023-09-08T16:01:02.541Z,99037.41
2023-09-08T16:03:29.876Z,99041.78
2023-09-08T16:05:58.440Z,99039.31
2023-09-08T16:08:25.533Z,99038.53
2023-09-08T16:10:53.181Z,99035.84
2023-09-08T16:13:20.940Z,99039.38
2023-09-08T16:15:50.874Z,99035.84
2023-09-08T16:18:18.835Z,99043.03
2023-09-08T16:20:45.791Z,99037.59
2023-09-08T16:23:14.065Z,99030.00
2023-09-08T16:25:41.120Z,99034.59
2023-09-08T16:28:08.297Z,99027.00
2023-09-08T16:30:36.049Z,99030.88
2023-09-08T16:33:03.354Z,99036.88
2023-09-08T16:35:30.963Z,99032.84
2023-09-08T16:37:57.919Z,99037.69
2023-09-08T16:40:26.956Z,99030.91
2023-09-08T16:42:53.951Z,99038.84
2023-09-08T16:45:20.930Z,99037.22
2023-09-08T16:47:47.878Z,99033.41
2023-09-08T16:50:14.885Z,99038.34
2023-09-08T16:52:41.913Z,99036.19
2023-09-08T16:55:12.449Z,99035.66
2023-09-08T16:57:41.223Z,99035.16
2023-09-08T17:00:09.434Z,99038.97
2023-09-08T17:02:36.813Z,99034.03
2023-09-08T17:05:04.659Z,99048.25
2023-09-08T17:07:31.665Z,99037.91
2023-09-08T17:09:58.986Z,99043.09
2023-09-08T17:12:27.416Z,99047.72
2023-09-08T17:14:56.005Z,99045.53
2023-09-08T17:17:23.246Z,99039.00
2023-09-08T17:19:50.394Z,99039.53
2023-09-08T17:22:17.573Z,99041.16
2023-09-08T17:24:44.650Z,99044.44
2023-09-08T17:27:11.648Z,99036.78
2023-09-08T17:29:38.555Z,99033.25
2023-09-08T17:32:07.165Z,99044.41
2023-09-08T17:34:34.352Z,99037.31
2023-09-08T17:37:01.535Z,99039.16
2023-09-08T17:39:28.690Z,99044.31
2023-09-08T17:41:55.777Z,99041.81
2023-09-08T17:44:22.778Z,99041.50
2023-09-08T17:46:50.465Z,99047.44
2023-09-08T17:49:18.905Z,99052.22
2023-09-08T17:51:45.834Z,99062.75
2023-09-08T17:54:13.146Z,99058.63
2023-09-08T17:56:41.119Z,99052.19
2023-09-08T17:59:08.277Z,99049.56
2023-09-08T18:01:38.057Z,99055.31
2023-09-08T18:04:07.061Z,99057.78
2023-09-08T18:06:35.668Z,99063.25
2023-09-08T18:09:02.751Z,99060.94
2023-09-08T18:11:29.904Z,99058.34
2023-09-08T18:13:57.258Z,99061.41
2023-09-08T18:16:24.659Z,99064.50
2023-09-08T18:18:51.754Z,99068.56
2023-09-08T18:21:18.650Z,99066.13
2023-09-08T18:23:48.044Z,99075.16
2023-09-08T18:26:17.498Z,99070.56
2023-09-08T18:28:44.980Z,99068.63
2023-09-08T18:31:12.699Z,99069.31
2023-09-08T18:33:40.684Z,99070.59
2023-09-08T18:36:08.141Z,99075.47
2023-09-08T18:38:35.448Z,99076.44
2023-09-08T18:41:03.916Z,99075.84
2023-09-08T18:43:31.084Z,99084.47
2023-09-08T18:45:58.022Z,99089.84
2023-09-08T18:48:25.076Z,99090.00
2023-09-08T18:50:52.399Z,99085.28
2023-09-08T18:53:19.468Z,99096.44
2023-09-08T18:55:47.016Z,99091.16
2023-09-08T18:58:16.179Z,99101.09
2023-09-08T19:00:44.863Z,99102.69
2023-09-08T19:03:12.106Z,99102.31
2023-09-08T19:05:41.151Z,99097.25
2023-09-08T19:08:08.267Z,99099.81
2023-09-08T19:10:35.417Z,99101.78
2023-09-08T19:13:02.415Z,99102.09
2023-09-08T19:15:30.857Z,99105.81
2023-09-08T19:17:57.890Z,99100.88
2023-09-08T19:20:25.008Z,99097.28
2023-09-08T19:22:51.954Z,99096.34
2023-09-08T19:25:18.961Z,99104.72
2023-09-08T19:27:45.951Z,99104.72
2023-09-08T19:30:13.595Z,99105.94
2023-09-08T19:32:42.480Z,99110.13
2023-09-08T19:35:10.047Z,99108.16
2023-09-08T19:37:36.926Z,99107.03
2023-09-08T19:40:04.819Z,99108.53
2023-09-08T19:42:31.841Z,99116.47
2023-09-08T19:44:58.765Z,99117.59
2023-09-08T19:47:25.803Z,99123.13
2023-09-08T19:49:54.096Z,99121.44
2023-09-08T19:52:20.951Z,99120.94
2023-09-08T19:54:48.351Z,99120.69
2023-09-08T19:57:15.253Z,99118.66
2023-09-08T19:59:42.440Z,99122.44
2023-09-08T20:02:10.456Z,99111.63
2023-09-08T20:04:37.682Z,99116.47
2023-09-08T20:07:06.070Z,99122.78
2023-09-08T20:09:33.239Z,99125.56
2023-09-08T20:12:00.172Z,99125.19
2023-09-08T20:14:29.855Z,99116.75
2023-09-08T20:16:56.780Z,99118.78
2023-09-08T20:19:23.896Z,99120.81
2023-09-08T20:21:50.810Z,99115.28
2023-09-08T20:24:19.492Z,99118.19
2023-09-08T20:26:46.573Z,99114.16
2023-09-08T20:29:14.005Z,99120.25
2023-09-08T20:31:41.026Z,99124.19
2023-09-08T20:34:07.943Z,99123.75
2023-09-08T20:36:34.893Z,99130.59
2023-09-08T20:39:01.840Z,99121.25
2023-09-08T20:41:30.114Z,99121.25
2023-09-08T20:43:57.047Z,99127.16
2023-09-08T20:46:24.008Z,99124.69
2023-09-08T20:48:51.427Z,99131.31
2023-09-08T20:51:24.157Z,99126.06
2023-09-08T20:53:51.109Z,99133.31
2023-09-08T20:56:18.579Z,99128.16
2023-09-08T20:58:47.165Z,99127.78
2023-09-08T21:01:14.211Z,99132.72
2023-09-08T21:03:41.354Z,99133.56
2023-09-08T21:06:08.601Z,99133.56
2023-09-08T21:08:35.566Z,99130.25
2023-09-08T21:11:03.474Z,99133.34
2023-09-08T21:13:30.730Z,99123.00
2023-09-08T21:15:59.588Z,99124.47
2023-09-08T21:18:26.597Z,99126.53
2023-09-08T21:20:53.521Z,99125.47
2023-09-08T21:23:20.553Z,99125.31
2023-09-08T21:25:50.746Z,99126.97
2023-09-08T21:28:17.799Z,99117.03
2023-09-08T21:30:45.442Z,99113.72
2023-09-08T21:33:14.390Z,99116.00
2023-09-08T21:35:41.600Z,99123.44
2023-09-08T21:38:08.525Z,99122.81
2023-09-08T21:40:39.148Z,99113.72
2023-09-08T21:43:06.160Z,99115.63
2023-09-08T21:45:33.091Z,99120.53
2023-09-08T21:48:00.000Z,99117.47
2023-09-08T21:50:28.332Z,99115.19
2023-09-08T21:52:55.287Z,99114.13
2023-09-08T21:55:22.804Z,99110.56
2023-09-08T21:57:50.047Z,99117.03
2023-09-08T22:00:18.715Z,99109.19
2023-09-08T22:02:45.815Z,99110.22
2023-09-08T22:05:13.221Z,99116.16
2023-09-08T22:07:41.726Z,99114.16
2023-09-08T22:10:09.418Z,99107.94
2023-09-08T22:12:36.461Z,99112.66
2023-09-08T22:15:04.432Z,99111.16
2023-09-08T22:17:33.059Z,99108.44
2023-09-08T22:20:00.056Z,99108.84
2023-09-08T22:22:26.937Z,99109.66
2023-09-08T22:24:55.253Z,99107.78
2023-09-08T22:27:22.374Z,99105.69
2023-09-08T22:29:49.181Z,99101.09
2023-09-08T22:32:16.111Z,99100.97
2023-09-08T22:34:42.996Z,99105.00
2023-09-08T22:37:10.193Z,99101.31
2023-09-08T22:39:37.001Z,99104.91
2023-09-08T22:42:05.809Z,99098.63
2023-09-08T22:44:32.846Z,99094.88
2023-09-08T22:46:59.936Z,99096.59
2023-09-08T22:49:27.477Z,99098.06
2023-09-08T22:51:54.957Z,99098.00
2023-09-08T22:54:22.123Z,99095.09
2023-09-08T22:56:49.082Z,99098.41
2023-09-08T22:59:17.520Z,99096.94
2023-09-08T23:01:44.444Z,99098.19
2023-09-08T23:04:11.383Z,99088.88
2023-09-08T23:06:38.314Z,99100.09
2023-09-08T23:09:05.231Z,99095.00
2023-09-08T23:11:32.438Z,99089.25
2023-09-08T23:13:59.594Z,99083.91
2023-09-08T23:16:28.058Z,99088.00
2023-09-08T23:18:55.929Z,99091.88
2023-09-08T23:21:22.904Z,99091.00
2023-09-08T23:23:55.133Z,99089.13
2023-09-08T23:26:24.938Z,99084.59
2023-09-08T23:28:55.971Z,99091.38
2023-09-08T23:31:23.206Z,99083.94
2023-09-08T23:33:52.032Z,99089.63
2023-09-08T23:36:18.938Z,99079.47
2023-09-08T23:38:45.812Z,99083.06
2023-09-08T23:41:12.854Z,99080.22
2023-09-08T23:43:40.158Z,99085.19
2023-09-08T23:46:07.457Z,99086.03
2023-09-08T23:48:34.391Z,99080.88
2023-09-08T23:51:02.757Z,99087.44
2023-09-08T23:53:30.062Z,99080.84
2023-09-08T23:55:57.177Z,99087.44
2023-09-08T23:58:24.163Z,99085.69
